モンテレー の空港の天気 - METARとTAF

ヘネラル・マリアノ・エソコベド国際空港 ( MMMY / MTY ) - メキシコ ヌエボ・レオン州モンテレー
飛行場実況気象(Metar)
観測時間04/26 22:41 CDT (04/27 03:41 UTC)
風向・風速東南東 3m/s
視程10km以上
天気現象
全天の8割程度の雲 雲底高度 1070m
気温18℃
湿度83%
気圧1015hPa
METARMMMY 270341Z 11006KT 10SM BKN035 18/15 A2996 RMK 8/500
過去の天気等 Google飛行場航空写真 Wunderground天気予報

過去48時間のMETAR

飛行場予報(TAF)
発表時間: 4/26 18:44 CDT (4/26 23:44 UTC)
予報対象時間: 26日19時 CDT ~ 28日1時 CDT
風向・風速東南東 8m/s
視程10km以上
全天の4割程度の雲 雲底高度 1,220m
全天の4割程度の雲 雲底高度 6,100m
26日22時 CDT ~ 26日23時 CDT に徐々に
風向・風速東 3m/s
視程10km以上
天気現象煙霧
27日1時 CDT から
風向・風速東 3m/s
視程8,050m
天気現象煙霧
全天の8割程度の雲 雲底高度 300m
27日4時 CDT ~ 27日5時 CDT に徐々に
風向・風速東 3m/s
視程4,830m
天気現象もや 煙霧
27日6時 CDT ~ 27日10時 CDT に一時的に
視程1,610m
天気現象弱い雨 もや
全天を覆う雲 雲底高度 240m
27日12時 CDT から
風向・風速東 4m/s
視程10km以上
全天の4割程度の雲 雲底高度 610m
全天の8割程度の雲 雲底高度 6,100m
27日15時 CDT ~ 27日16時 CDT に徐々に
風向・風速東 5m/s
全天の8割程度の雲 雲底高度 610m
27日16時 CDT ~ 27日20時 CDT に一時的に
視程8,050m
天気現象
TAF MMMY 262344Z 2700/2806 12015KT P6SM SCT040 SCT200 TX25/2722Z TN16/2712Z
BECMG 2703/2704 10005KT 6SM HZ
FM270600 10005KT 5SM HZ BKN010
BECMG 2709/2710 10005KT 3SM BR HZ
TEMPO 2711/2715 1SM -RA BR OVC008
FM271700 09008KT P6SM SCT020 BKN200
BECMG 2720/2721 10010KT BKN020
TEMPO 2721/2801 5SM RA